createdAt,value
2022-08-19T00:01:38.771Z,48.44
2022-08-19T00:04:06.756Z,48.42
2022-08-19T00:06:34.741Z,48.67
2022-08-19T00:09:01.351Z,48.74
2022-08-19T00:11:28.488Z,48.83
2022-08-19T00:13:56.411Z,48.41
2022-08-19T00:16:26.509Z,48.25
2022-08-19T00:18:54.485Z,48.47
2022-08-19T00:21:21.101Z,48.66
2022-08-19T00:23:48.117Z,48.43
2022-08-19T00:26:14.807Z,48.41
2022-08-19T00:28:42.117Z,48.51
2022-08-19T00:31:08.938Z,48.34
2022-08-19T00:33:35.469Z,49.04
2022-08-19T00:36:03.995Z,48.79
2022-08-19T00:38:37.279Z,49.11
2022-08-19T00:41:05.887Z,49.50
2022-08-19T00:43:32.467Z,49.42
2022-08-19T00:45:59.045Z,49.19
2022-08-19T00:48:25.546Z,49.45
2022-08-19T00:50:54.092Z,49.14
2022-08-19T00:53:22.547Z,49.49
2022-08-19T00:55:51.387Z,49.31
2022-08-19T00:58:19.928Z,49.15
2022-08-19T01:00:47.491Z,49.24
2022-08-19T01:03:16.152Z,49.24
2022-08-19T01:05:46.319Z,49.27
2022-08-19T01:08:13.047Z,49.10
2022-08-19T01:10:50.348Z,49.06
2022-08-19T01:13:18.480Z,49.52
2022-08-19T01:15:51.300Z,49.61
2022-08-19T01:18:18.795Z,49.59
2022-08-19T01:20:46.400Z,49.19
2022-08-19T01:23:13.644Z,49.37
2022-08-19T01:25:44.393Z,49.17
2022-08-19T01:28:33.966Z,49.30
2022-08-19T01:31:08.190Z,49.60
2022-08-19T01:33:35.342Z,49.54
2022-08-19T01:36:06.143Z,49.59
2022-08-19T01:38:36.229Z,49.75
2022-08-19T01:41:11.913Z,49.59
2022-08-19T01:43:38.756Z,49.64
2022-08-19T01:46:25.696Z,50.06
2022-08-19T01:48:52.526Z,49.89
2022-08-19T01:51:19.134Z,49.76
2022-08-19T01:53:48.243Z,49.70
2022-08-19T01:56:15.443Z,49.95
2022-08-19T01:58:48.623Z,50.18
2022-08-19T02:01:15.229Z,50.19
2022-08-19T02:03:42.275Z,50.34
2022-08-19T02:06:09.242Z,49.83
2022-08-19T02:08:36.901Z,50.07
2022-08-19T02:11:03.442Z,49.79
2022-08-19T02:13:30.125Z,50.52
2022-08-19T02:15:56.692Z,50.12
2022-08-19T02:18:23.284Z,50.44
2022-08-19T02:20:54.918Z,50.02
2022-08-19T02:23:21.544Z,50.13
2022-08-19T02:25:48.940Z,49.94
2022-08-19T02:28:18.546Z,49.96
2022-08-19T02:30:46.136Z,50.31
2022-08-19T02:33:12.691Z,50.11
2022-08-19T02:35:42.047Z,50.39
2022-08-19T02:38:26.959Z,50.22
2022-08-19T02:40:54.677Z,50.49
2022-08-19T02:43:21.522Z,50.62
2022-08-19T02:45:49.300Z,50.28
2022-08-19T02:48:21.410Z,50.77
2022-08-19T02:50:53.279Z,50.65
2022-08-19T02:53:20.304Z,50.69
2022-08-19T02:55:47.575Z,50.21
2022-08-19T02:58:14.791Z,51.17
2022-08-19T03:00:49.905Z,51.22
2022-08-19T03:03:17.271Z,51.18
2022-08-19T03:05:48.301Z,51.25
2022-08-19T03:08:23.669Z,51.24
2022-08-19T03:10:50.173Z,51.56
2022-08-19T03:13:17.748Z,51.23
2022-08-19T03:15:45.190Z,50.83
2022-08-19T03:18:12.288Z,51.15
2022-08-19T03:20:46.720Z,50.77
2022-08-19T03:23:13.877Z,51.02
2022-08-19T03:25:43.064Z,50.82
2022-08-19T03:28:12.886Z,51.26
2022-08-19T03:30:43.552Z,50.87
2022-08-19T03:33:11.334Z,51.25
2022-08-19T03:35:46.055Z,51.50
2022-08-19T03:38:12.565Z,51.56
2022-08-19T03:40:39.140Z,51.60
2022-08-19T03:43:06.681Z,51.84
2022-08-19T03:45:33.199Z,52.16
2022-08-19T03:48:00.034Z,52.13
2022-08-19T03:50:26.521Z,52.14
2022-08-19T03:52:53.421Z,52.34
2022-08-19T03:55:20.285Z,52.41
2022-08-19T03:57:49.486Z,52.48
2022-08-19T04:00:16.295Z,52.59
2022-08-19T04:02:58.497Z,52.24
2022-08-19T04:05:29.560Z,52.00
2022-08-19T04:08:00.085Z,52.44
2022-08-19T04:10:27.547Z,52.47
2022-08-19T04:12:54.148Z,52.46
2022-08-19T04:15:21.804Z,52.52
2022-08-19T04:17:48.607Z,52.42
2022-08-19T04:20:15.399Z,52.26
2022-08-19T04:22:41.869Z,52.13
2022-08-19T04:25:08.612Z,52.31
2022-08-19T04:27:35.353Z,52.51
2022-08-19T04:30:02.466Z,52.51
2022-08-19T04:32:29.019Z,52.46
2022-08-19T04:35:02.156Z,52.78
2022-08-19T04:37:44.072Z,52.96
2022-08-19T04:40:29.477Z,53.00
2022-08-19T04:42:56.170Z,52.46
2022-08-19T04:45:23.266Z,52.53
2022-08-19T04:47:58.051Z,52.86
2022-08-19T04:50:27.115Z,52.52
2022-08-19T04:52:54.196Z,52.75
2022-08-19T04:55:21.144Z,52.38
2022-08-19T04:57:47.651Z,52.37
2022-08-19T05:00:14.608Z,51.98
2022-08-19T05:02:41.519Z,52.18
2022-08-19T05:05:08.286Z,52.22
2022-08-19T05:07:35.496Z,51.73
2022-08-19T05:10:02.234Z,51.76
2022-08-19T05:12:29.828Z,51.36
2022-08-19T05:14:57.810Z,50.88
2022-08-19T05:17:27.664Z,50.77
2022-08-19T05:20:14.057Z,50.73
2022-08-19T05:22:41.042Z,50.77
2022-08-19T05:25:13.792Z,50.58
2022-08-19T05:27:41.016Z,50.80
2022-08-19T05:30:07.810Z,50.28
2022-08-19T05:32:34.357Z,50.15
2022-08-19T05:35:00.855Z,50.71
2022-08-19T05:37:28.487Z,50.38
2022-08-19T05:39:55.735Z,49.90
2022-08-19T05:42:23.860Z,50.11
2022-08-19T05:44:51.343Z,49.82
2022-08-19T05:47:19.778Z,49.63
2022-08-19T05:49:46.656Z,49.99
2022-08-19T05:52:14.456Z,49.52
2022-08-19T05:54:45.987Z,49.68
2022-08-19T05:57:15.120Z,49.64
2022-08-19T05:59:42.530Z,49.19
2022-08-19T06:02:09.295Z,49.13
2022-08-19T06:04:35.935Z,49.77
2022-08-19T06:07:12.613Z,49.18
2022-08-19T06:09:39.834Z,48.97
2022-08-19T06:12:06.702Z,48.90
2022-08-19T06:14:35.509Z,48.66
2022-08-19T06:17:07.536Z,48.57
2022-08-19T06:19:34.352Z,47.93
2022-08-19T06:22:01.650Z,48.18
2022-08-19T06:24:29.835Z,47.24
2022-08-19T06:27:00.776Z,46.51
2022-08-19T06:29:28.927Z,46.68
2022-08-19T06:31:57.256Z,47.26
2022-08-19T06:34:24.298Z,46.07
2022-08-19T06:36:52.231Z,46.31
2022-08-19T06:39:20.457Z,46.26
2022-08-19T06:41:52.443Z,45.62
2022-08-19T06:44:23.060Z,46.00
2022-08-19T06:46:54.762Z,45.41
2022-08-19T06:49:21.986Z,45.66
2022-08-19T06:51:49.484Z,46.58
2022-08-19T06:54:19.247Z,46.40
2022-08-19T06:56:46.840Z,46.08
2022-08-19T06:59:14.643Z,46.66
2022-08-19T07:01:47.528Z,46.12
2022-08-19T07:04:15.165Z,46.72
2022-08-19T07:06:44.096Z,46.39
2022-08-19T07:09:12.535Z,46.31
2022-08-19T07:11:39.114Z,46.09
2022-08-19T07:14:18.928Z,46.24
2022-08-19T07:16:46.838Z,45.86
2022-08-19T07:19:16.164Z,45.79
2022-08-19T07:21:45.948Z,45.45
2022-08-19T07:24:13.294Z,44.68
2022-08-19T07:26:42.213Z,44.72
2022-08-19T07:29:09.345Z,43.92
2022-08-19T07:31:38.815Z,44.02
2022-08-19T07:34:09.787Z,43.18
2022-08-19T07:36:39.235Z,43.46
2022-08-19T07:39:07.699Z,43.22
2022-08-19T07:41:36.467Z,43.35
2022-08-19T07:44:04.851Z,43.25
2022-08-19T07:46:32.191Z,43.01
2022-08-19T07:49:01.390Z,42.93
2022-08-19T07:51:36.986Z,43.01
2022-08-19T07:54:04.456Z,42.83
2022-08-19T07:56:31.104Z,42.26
2022-08-19T07:58:57.701Z,42.26
2022-08-19T08:01:26.583Z,42.95
2022-08-19T08:04:12.069Z,42.67
2022-08-19T08:06:57.335Z,41.99
2022-08-19T08:09:26.754Z,42.25
2022-08-19T08:11:55.088Z,42.84
2022-08-19T08:14:29.072Z,42.68
2022-08-19T08:17:02.105Z,42.15
2022-08-19T08:19:29.366Z,41.92
2022-08-19T08:21:56.964Z,42.21
2022-08-19T08:24:28.600Z,41.27
2022-08-19T08:26:57.695Z,40.55
2022-08-19T08:29:26.130Z,39.93
2022-08-19T08:31:58.642Z,35.72
2022-08-19T08:34:26.808Z,28.71
2022-08-19T08:36:53.343Z,25.80
2022-08-19T08:39:21.649Z,24.49
2022-08-19T08:41:57.714Z,23.15
2022-08-19T08:44:28.959Z,22.46
2022-08-19T08:47:02.548Z,19.20
2022-08-19T08:49:44.991Z,18.91
2022-08-19T08:52:14.826Z,18.82
2022-08-19T08:54:54.756Z,18.68
2022-08-19T08:57:42.458Z,19.03
2022-08-19T09:00:15.132Z,20.95
2022-08-19T09:02:43.337Z,22.30
2022-08-19T09:05:11.077Z,23.66
2022-08-19T09:07:52.253Z,22.23
2022-08-19T09:10:21.881Z,19.93
2022-08-19T09:13:09.438Z,18.13
2022-08-19T09:15:39.447Z,17.23
2022-08-19T09:18:07.352Z,17.03
2022-08-19T09:20:34.201Z,15.87
2022-08-19T09:23:00.717Z,16.44
2022-08-19T09:25:29.567Z,18.37
2022-08-19T09:28:01.238Z,18.08
2022-08-19T09:30:31.394Z,17.14
2022-08-19T09:32:57.982Z,18.29
2022-08-19T09:35:25.715Z,21.91
2022-08-19T09:37:57.725Z,24.20
2022-08-19T09:40:27.234Z,24.94
2022-08-19T09:42:58.139Z,26.05
2022-08-19T09:45:24.920Z,26.15
2022-08-19T09:47:53.811Z,26.66
2022-08-19T09:50:21.386Z,26.88
2022-08-19T09:52:55.179Z,28.06
2022-08-19T09:55:24.661Z,26.61
2022-08-19T09:57:59.260Z,22.15
2022-08-19T10:00:25.774Z,21.64
2022-08-19T10:02:53.275Z,23.39
2022-08-19T10:05:38.586Z,24.43
2022-08-19T10:08:13.522Z,21.87
2022-08-19T10:10:43.204Z,18.67
2022-08-19T10:13:10.094Z,16.09
2022-08-19T10:15:47.065Z,14.32
2022-08-19T10:18:13.963Z,13.38
2022-08-19T10:20:42.625Z,12.86
2022-08-19T10:23:10.121Z,12.13
2022-08-19T10:25:37.005Z,11.61
2022-08-19T10:28:10.751Z,13.55
2022-08-19T10:30:37.768Z,17.05
2022-08-19T10:33:10.817Z,19.08
2022-08-19T10:35:42.549Z,21.90
2022-08-19T10:38:29.971Z,23.06
2022-08-19T10:41:07.680Z,20.62
2022-08-19T10:43:37.017Z,16.91
2022-08-19T10:46:04.847Z,16.50
2022-08-19T10:48:36.406Z,15.04
2022-08-19T10:51:22.511Z,16.21
2022-08-19T10:53:50.106Z,14.86
2022-08-19T10:56:35.530Z,13.55
2022-08-19T10:59:03.886Z,12.83
2022-08-19T11:01:31.859Z,12.00
2022-08-19T11:03:58.591Z,11.63
2022-08-19T11:06:28.048Z,11.94
2022-08-19T11:08:55.364Z,13.24
2022-08-19T11:11:22.464Z,11.46
2022-08-19T11:13:50.766Z,10.82
2022-08-19T11:16:19.016Z,10.55
2022-08-19T11:18:48.034Z,9.51
2022-08-19T11:21:18.181Z,10.44
2022-08-19T11:23:47.595Z,12.53
2022-08-19T11:26:14.656Z,11.46
2022-08-19T11:28:41.240Z,10.28
2022-08-19T11:31:12.708Z,9.82
2022-08-19T11:33:39.312Z,10.45
2022-08-19T11:36:06.055Z,11.92
2022-08-19T11:38:32.952Z,11.37
2022-08-19T11:41:01.425Z,11.04
2022-08-19T11:43:30.876Z,11.22
2022-08-19T11:45:59.246Z,14.05
2022-08-19T11:48:26.341Z,16.23
2022-08-19T11:50:53.727Z,14.66
2022-08-19T11:53:21.175Z,12.25
2022-08-19T11:55:48.408Z,12.05
2022-08-19T11:58:18.783Z,13.39
2022-08-19T12:00:46.157Z,12.97
2022-08-19T12:03:14.069Z,12.78
2022-08-19T12:05:41.031Z,12.87
2022-08-19T12:08:07.792Z,13.80
2022-08-19T12:10:35.305Z,13.66
2022-08-19T12:13:02.040Z,12.63
2022-08-19T12:15:29.869Z,11.50
2022-08-19T12:18:04.184Z,10.98
2022-08-19T12:20:30.895Z,11.25
2022-08-19T12:22:57.860Z,12.44
2022-08-19T12:25:24.458Z,13.92
2022-08-19T12:27:57.344Z,16.02
2022-08-19T12:30:24.737Z,16.68
2022-08-19T12:32:52.221Z,18.57
2022-08-19T12:35:22.090Z,19.23
2022-08-19T12:37:57.121Z,19.00
2022-08-19T12:40:26.409Z,19.02
2022-08-19T12:42:53.341Z,19.76
2022-08-19T12:45:20.142Z,19.86
2022-08-19T12:47:47.899Z,20.44
2022-08-19T12:50:16.358Z,20.39
2022-08-19T12:52:43.336Z,20.42
2022-08-19T12:55:11.569Z,20.99
2022-08-19T12:57:38.636Z,21.70
2022-08-19T13:00:11.681Z,22.21
2022-08-19T13:02:39.374Z,22.46
2022-08-19T13:05:09.161Z,22.66
2022-08-19T13:07:35.844Z,22.87
2022-08-19T13:10:02.614Z,22.91
2022-08-19T13:12:29.221Z,23.08
2022-08-19T13:14:56.343Z,22.73
2022-08-19T13:17:23.990Z,22.91
2022-08-19T13:19:51.258Z,23.14
2022-08-19T13:22:17.937Z,23.13
2022-08-19T13:24:47.280Z,22.70
2022-08-19T13:27:14.656Z,22.46
2022-08-19T13:30:00.445Z,22.93
2022-08-19T13:32:45.693Z,23.42
2022-08-19T13:35:16.691Z,22.87
2022-08-19T13:37:43.804Z,23.19
2022-08-19T13:40:16.994Z,22.69
2022-08-19T13:42:44.901Z,23.18
2022-08-19T13:45:11.873Z,22.68
2022-08-19T13:47:43.504Z,22.46
2022-08-19T13:50:11.913Z,22.08
2022-08-19T13:52:39.280Z,22.07
2022-08-19T13:55:07.081Z,22.32
2022-08-19T13:57:33.974Z,22.52
2022-08-19T14:00:00.910Z,22.77
2022-08-19T14:02:27.559Z,22.79
2022-08-19T14:04:54.263Z,22.50
2022-08-19T14:07:21.229Z,22.90
2022-08-19T14:09:47.811Z,22.70
2022-08-19T14:12:28.394Z,22.19
2022-08-19T14:14:55.879Z,22.11
2022-08-19T14:17:22.628Z,22.83
2022-08-19T14:19:49.245Z,22.30
2022-08-19T14:22:15.893Z,22.54
2022-08-19T14:24:49.230Z,21.96
2022-08-19T14:27:15.863Z,21.53
2022-08-19T14:29:42.724Z,21.47
2022-08-19T14:32:11.489Z,21.53
2022-08-19T14:34:43.429Z,21.04
2022-08-19T14:37:10.484Z,19.99
2022-08-19T14:39:44.750Z,20.12
2022-08-19T14:42:11.898Z,20.92
2022-08-19T14:44:38.499Z,20.66
2022-08-19T14:47:05.155Z,21.30
2022-08-19T14:49:35.262Z,21.41
2022-08-19T14:52:08.954Z,21.16
2022-08-19T14:54:35.645Z,21.19
2022-08-19T14:57:02.211Z,21.16
2022-08-19T14:59:29.429Z,21.26
2022-08-19T15:01:56.299Z,20.77
2022-08-19T15:04:22.870Z,21.19
2022-08-19T15:06:51.577Z,20.59
2022-08-19T15:09:18.328Z,20.54
2022-08-19T15:11:44.898Z,20.60
2022-08-19T15:14:11.446Z,20.53
2022-08-19T15:16:41.921Z,20.65
2022-08-19T15:19:08.489Z,21.24
2022-08-19T15:21:35.206Z,21.68
2022-08-19T15:24:02.215Z,21.46
2022-08-19T15:26:32.944Z,21.72
2022-08-19T15:29:00.355Z,21.84
2022-08-19T15:31:29.033Z,21.90
2022-08-19T15:33:58.235Z,21.67
2022-08-19T15:36:26.280Z,21.64
2022-08-19T15:38:53.240Z,21.93
2022-08-19T15:41:24.269Z,21.60
2022-08-19T15:43:52.194Z,21.94
2022-08-19T15:46:21.935Z,22.34
2022-08-19T15:48:55.830Z,22.42
2022-08-19T15:51:24.481Z,22.85
2022-08-19T15:53:51.471Z,22.26
2022-08-19T15:56:18.011Z,22.55
2022-08-19T15:59:03.224Z,22.86
2022-08-19T16:01:33.385Z,23.42
2022-08-19T16:04:23.250Z,23.13
2022-08-19T16:06:58.098Z,22.85
2022-08-19T16:09:28.849Z,23.13
2022-08-19T16:12:02.134Z,22.90
2022-08-19T16:14:31.150Z,23.11
2022-08-19T16:16:57.761Z,23.11
2022-08-19T16:19:25.350Z,23.22
2022-08-19T16:21:53.005Z,23.26
2022-08-19T16:24:22.333Z,23.38
2022-08-19T16:26:49.161Z,23.24
2022-08-19T16:29:33.465Z,23.45
2022-08-19T16:32:05.038Z,24.15
2022-08-19T16:34:32.221Z,23.87
2022-08-19T16:37:00.351Z,24.41
2022-08-19T16:39:26.969Z,24.37
2022-08-19T16:41:54.006Z,24.65
2022-08-19T16:44:21.118Z,24.74
2022-08-19T16:46:54.802Z,24.71
2022-08-19T16:49:53.123Z,24.93
2022-08-19T16:52:13.046Z,25.46
2022-08-19T16:54:41.871Z,25.30
2022-08-19T16:57:12.137Z,25.37
2022-08-19T16:59:48.417Z,25.45
2022-08-19T17:02:19.904Z,25.24
2022-08-19T17:04:57.582Z,25.28
2022-08-19T17:07:29.388Z,26.15
2022-08-19T17:10:00.378Z,26.05
2022-08-19T17:12:30.242Z,25.82
2022-08-19T17:14:58.530Z,25.83
2022-08-19T17:17:28.901Z,26.41
2022-08-19T17:19:55.959Z,26.02
2022-08-19T17:22:22.503Z,26.58
2022-08-19T17:24:49.294Z,27.30
2022-08-19T17:27:16.129Z,26.82
2022-08-19T17:29:46.886Z,26.82
2022-08-19T17:32:15.229Z,27.02
2022-08-19T17:34:41.792Z,26.98
2022-08-19T17:37:08.376Z,27.96
2022-08-19T17:39:37.802Z,27.61
2022-08-19T17:42:06.676Z,28.14
2022-08-19T17:44:36.620Z,27.69
2022-08-19T17:47:04.277Z,28.07
2022-08-19T17:49:31.029Z,28.37
2022-08-19T17:52:00.606Z,27.73
2022-08-19T17:54:33.329Z,27.84
2022-08-19T17:57:01.419Z,28.46
2022-08-19T17:59:30.043Z,28.11
2022-08-19T18:01:57.448Z,28.66
2022-08-19T18:04:24.993Z,28.80
2022-08-19T18:06:53.536Z,28.48
2022-08-19T18:09:23.916Z,29.08
2022-08-19T18:11:52.718Z,28.52
2022-08-19T18:14:20.460Z,28.93
2022-08-19T18:16:47.054Z,28.44
2022-08-19T18:19:13.790Z,28.68
2022-08-19T18:21:40.820Z,28.76
2022-08-19T18:24:07.528Z,29.40
2022-08-19T18:26:34.893Z,30.22
2022-08-19T18:29:02.074Z,30.35
2022-08-19T18:31:29.993Z,29.81
2022-08-19T18:33:56.739Z,30.32
2022-08-19T18:36:43.602Z,29.92
2022-08-19T18:39:29.411Z,30.73
2022-08-19T18:42:15.013Z,30.77
2022-08-19T18:45:00.486Z,31.02
2022-08-19T18:47:45.876Z,30.81
2022-08-19T18:50:13.105Z,31.00
2022-08-19T18:52:40.609Z,30.57
2022-08-19T18:55:07.517Z,30.13
2022-08-19T18:57:34.265Z,30.04
2022-08-19T19:00:02.546Z,30.38
2022-08-19T19:02:29.221Z,30.80
2022-08-19T19:04:56.142Z,30.12
2022-08-19T19:07:23.325Z,30.43
2022-08-19T19:09:52.685Z,31.16
2022-08-19T19:12:19.352Z,31.37
2022-08-19T19:14:49.543Z,30.40
2022-08-19T19:17:16.824Z,30.47
2022-08-19T19:19:44.090Z,30.37
2022-08-19T19:22:11.927Z,30.61
2022-08-19T19:24:39.262Z,30.93
2022-08-19T19:27:08.318Z,30.59
2022-08-19T19:29:38.277Z,30.72
2022-08-19T19:32:07.938Z,30.95
2022-08-19T19:34:34.955Z,31.07
2022-08-19T19:37:01.566Z,31.33
2022-08-19T19:39:34.009Z,31.62
2022-08-19T19:42:20.081Z,31.52
2022-08-19T19:44:50.339Z,31.58
2022-08-19T19:47:18.848Z,31.92
2022-08-19T19:50:10.668Z,32.61
2022-08-19T19:52:32.993Z,32.18
2022-08-19T19:54:59.952Z,32.10
2022-08-19T19:57:26.925Z,32.65
2022-08-19T19:59:54.249Z,33.09
2022-08-19T20:02:22.013Z,33.00
2022-08-19T20:04:48.854Z,32.91
2022-08-19T20:07:15.359Z,32.79
2022-08-19T20:09:58.852Z,32.89
2022-08-19T20:12:25.747Z,33.17
2022-08-19T20:14:52.324Z,34.25
2022-08-19T20:17:20.407Z,33.83
2022-08-19T20:19:47.988Z,34.21
2022-08-19T20:22:14.758Z,33.92
2022-08-19T20:24:42.716Z,34.39
2022-08-19T20:27:10.679Z,34.47
2022-08-19T20:29:39.326Z,35.00
2022-08-19T20:32:09.774Z,34.21
2022-08-19T20:34:37.087Z,34.72
2022-08-19T20:37:03.638Z,34.20
2022-08-19T20:39:30.295Z,34.25
2022-08-19T20:41:56.855Z,35.17
2022-08-19T20:44:25.374Z,35.18
2022-08-19T20:46:55.415Z,34.79
2022-08-19T20:49:26.968Z,34.46
2022-08-19T20:51:54.677Z,34.93
2022-08-19T20:54:21.583Z,34.98
2022-08-19T20:56:49.381Z,35.30
2022-08-19T20:59:15.967Z,35.40
2022-08-19T21:01:42.471Z,35.00
2022-08-19T21:04:09.017Z,34.82
2022-08-19T21:06:37.039Z,35.10
2022-08-19T21:09:03.614Z,35.05
2022-08-19T21:11:31.098Z,35.47
2022-08-19T21:13:58.076Z,35.76
2022-08-19T21:16:25.281Z,35.57
2022-08-19T21:18:51.889Z,35.36
2022-08-19T21:21:18.440Z,36.17
2022-08-19T21:23:45.229Z,35.83
2022-08-19T21:26:11.858Z,35.96
2022-08-19T21:28:38.386Z,35.72
2022-08-19T21:31:06.698Z,36.61
2022-08-19T21:33:33.294Z,36.41
2022-08-19T21:36:00.148Z,36.07
2022-08-19T21:38:27.124Z,36.57
2022-08-19T21:40:54.175Z,36.49
2022-08-19T21:43:21.233Z,36.28
2022-08-19T21:45:48.250Z,37.08
2022-08-19T21:48:15.048Z,36.83
2022-08-19T21:50:42.546Z,37.00
2022-08-19T21:53:11.881Z,36.44
2022-08-19T21:55:44.029Z,37.28
2022-08-19T21:58:11.773Z,37.51
2022-08-19T22:00:38.569Z,37.99
2022-08-19T22:03:05.454Z,37.58
2022-08-19T22:05:33.374Z,37.23
2022-08-19T22:08:00.851Z,37.67
2022-08-19T22:10:28.883Z,37.45
2022-08-19T22:12:56.246Z,38.17
2022-08-19T22:15:24.347Z,38.34
2022-08-19T22:17:51.192Z,37.98
2022-08-19T22:20:21.025Z,38.05
2022-08-19T22:22:49.498Z,38.66
2022-08-19T22:25:29.382Z,38.88
2022-08-19T22:28:00.385Z,38.61
2022-08-19T22:30:27.542Z,38.63
2022-08-19T22:33:01.355Z,39.16
2022-08-19T22:35:31.280Z,39.23
2022-08-19T22:38:02.163Z,39.83
2022-08-19T22:40:30.549Z,40.02
2022-08-19T22:43:00.074Z,40.19
2022-08-19T22:45:27.271Z,39.82
2022-08-19T22:47:54.211Z,39.88
2022-08-19T22:50:21.024Z,40.74
2022-08-19T22:52:51.929Z,40.22
2022-08-19T22:55:18.730Z,40.59
2022-08-19T22:57:45.277Z,40.36
2022-08-19T23:00:13.293Z,40.52
2022-08-19T23:02:51.576Z,40.24
2022-08-19T23:05:21.911Z,39.99
2022-08-19T23:07:53.512Z,40.13
2022-08-19T23:10:27.437Z,40.57
2022-08-19T23:12:56.292Z,40.03
2022-08-19T23:15:25.853Z,40.35
2022-08-19T23:17:53.601Z,40.71
2022-08-19T23:20:20.859Z,41.40
2022-08-19T23:22:50.849Z,41.18
2022-08-19T23:25:20.768Z,41.51
2022-08-19T23:28:06.671Z,40.76
2022-08-19T23:30:34.807Z,40.99
2022-08-19T23:33:07.663Z,41.08
2022-08-19T23:35:37.097Z,41.48
2022-08-19T23:38:04.802Z,41.33
2022-08-19T23:40:31.447Z,41.42
2022-08-19T23:42:58.314Z,41.90
2022-08-19T23:45:25.571Z,41.70
2022-08-19T23:47:53.423Z,41.62
2022-08-19T23:50:20.584Z,41.82
2022-08-19T23:52:51.324Z,41.94
2022-08-19T23:55:20.012Z,41.85
2022-08-19T23:57:46.536Z,42.22
